sensor_id;sensor_type;location;lat;lon;timestamp;P1;durP1;ratioP1;P2;durP2;ratioP2
1154;SDS011;566;48.414;9.118;2023-02-28T00:00:29;9.98;;;6.78;;
1154;SDS011;566;48.414;9.118;2023-02-28T00:02:56;11.38;;;6.38;;
1154;SDS011;566;48.414;9.118;2023-02-28T00:05:22;12.45;;;6.55;;
1154;SDS011;566;48.414;9.118;2023-02-28T00:07:49;11.57;;;6.75;;
1154;SDS011;566;48.414;9.118;2023-02-28T00:10:22;11.38;;;6.85;;
1154;SDS011;566;48.414;9.118;2023-02-28T00:12:50;11.32;;;6.57;;
1154;SDS011;566;48.414;9.118;2023-02-28T00:15:17;12.40;;;7.15;;
1154;SDS011;566;48.414;9.118;2023-02-28T00:17:43;11.30;;;6.63;;
1154;SDS011;566;48.414;9.118;2023-02-28T00:20:09;18.27;;;10.43;;
1154;SDS011;566;48.414;9.118;2023-02-28T00:22:43;11.38;;;6.93;;
1154;SDS011;566;48.414;9.118;2023-02-28T00:25:12;11.55;;;6.68;;
1154;SDS011;566;48.414;9.118;2023-02-28T00:27:40;12.23;;;7.55;;
1154;SDS011;566;48.414;9.118;2023-02-28T00:30:06;11.20;;;7.18;;
1154;SDS011;566;48.414;9.118;2023-02-28T00:32:33;10.85;;;6.13;;
1154;SDS011;566;48.414;9.118;2023-02-28T00:35:02;10.50;;;6.78;;
1154;SDS011;566;48.414;9.118;2023-02-28T00:37:31;12.50;;;6.32;;
1154;SDS011;566;48.414;9.118;2023-02-28T00:39:57;11.15;;;6.22;;
1154;SDS011;566;48.414;9.118;2023-02-28T00:42:23;10.68;;;6.38;;
1154;SDS011;566;48.414;9.118;2023-02-28T00:44:49;11.98;;;6.20;;
1154;SDS011;566;48.414;9.118;2023-02-28T00:47:15;10.00;;;6.78;;
1154;SDS011;566;48.414;9.118;2023-02-28T00:49:43;10.50;;;6.28;;
1154;SDS011;566;48.414;9.118;2023-02-28T00:52:09;11.40;;;6.85;;
1154;SDS011;566;48.414;9.118;2023-02-28T00:54:38;10.13;;;6.53;;
1154;SDS011;566;48.414;9.118;2023-02-28T00:57:03;11.82;;;6.70;;
1154;SDS011;566;48.414;9.118;2023-02-28T00:59:29;12.38;;;6.75;;
1154;SDS011;566;48.414;9.118;2023-02-28T01:01:57;11.50;;;6.35;;
1154;SDS011;566;48.414;9.118;2023-02-28T01:04:32;12.13;;;5.75;;
1154;SDS011;566;48.414;9.118;2023-02-28T01:07:04;11.73;;;6.85;;
1154;SDS011;566;48.414;9.118;2023-02-28T01:09:30;9.98;;;6.63;;
1154;SDS011;566;48.414;9.118;2023-02-28T01:11:57;9.32;;;6.13;;
1154;SDS011;566;48.414;9.118;2023-02-28T01:14:23;10.23;;;5.97;;
1154;SDS011;566;48.414;9.118;2023-02-28T01:16:48;13.25;;;7.97;;
1154;SDS011;566;48.414;9.118;2023-02-28T01:19:14;12.90;;;7.80;;
1154;SDS011;566;48.414;9.118;2023-02-28T01:21:40;11.38;;;6.50;;
1154;SDS011;566;48.414;9.118;2023-02-28T01:24:06;11.68;;;6.13;;
1154;SDS011;566;48.414;9.118;2023-02-28T01:26:32;10.30;;;6.78;;
1154;SDS011;566;48.414;9.118;2023-02-28T01:28:57;11.70;;;6.50;;
1154;SDS011;566;48.414;9.118;2023-02-28T01:31:23;10.90;;;6.97;;
1154;SDS011;566;48.414;9.118;2023-02-28T01:33:49;10.45;;;6.90;;
1154;SDS011;566;48.414;9.118;2023-02-28T01:36:21;10.32;;;6.70;;
1154;SDS011;566;48.414;9.118;2023-02-28T01:38:48;11.60;;;6.57;;
1154;SDS011;566;48.414;9.118;2023-02-28T01:41:16;12.27;;;7.07;;
1154;SDS011;566;48.414;9.118;2023-02-28T01:46:18;11.55;;;6.60;;
1154;SDS011;566;48.414;9.118;2023-02-28T01:48:45;12.30;;;7.15;;
1154;SDS011;566;48.414;9.118;2023-02-28T01:51:21;10.95;;;6.80;;
1154;SDS011;566;48.414;9.118;2023-02-28T01:53:51;10.68;;;6.38;;
1154;SDS011;566;48.414;9.118;2023-02-28T01:56:24;12.82;;;6.82;;
1154;SDS011;566;48.414;9.118;2023-02-28T01:58:54;11.27;;;7.25;;
1154;SDS011;566;48.414;9.118;2023-02-28T02:01:23;10.68;;;7.38;;
1154;SDS011;566;48.414;9.118;2023-02-28T02:03:51;13.45;;;7.80;;
1154;SDS011;566;48.414;9.118;2023-02-28T02:06:25;13.20;;;8.48;;
1154;SDS011;566;48.414;9.118;2023-02-28T02:08:54;13.75;;;7.88;;
1154;SDS011;566;48.414;9.118;2023-02-28T02:11:23;15.30;;;8.35;;
1154;SDS011;566;48.414;9.118;2023-02-28T02:27:32;15.13;;;8.85;;
1154;SDS011;566;48.414;9.118;2023-02-28T02:32:45;13.23;;;8.27;;
1154;SDS011;566;48.414;9.118;2023-02-28T02:38:26;15.38;;;9.65;;
1154;SDS011;566;48.414;9.118;2023-02-28T02:43:33;15.00;;;9.65;;
1154;SDS011;566;48.414;9.118;2023-02-28T02:46:14;12.70;;;8.27;;
1154;SDS011;566;48.414;9.118;2023-02-28T02:48:46;16.95;;;9.50;;
1154;SDS011;566;48.414;9.118;2023-02-28T02:51:15;15.18;;;8.90;;
1154;SDS011;566;48.414;9.118;2023-02-28T02:53:47;10.57;;;8.07;;
1154;SDS011;566;48.414;9.118;2023-02-28T02:56:20;14.47;;;9.73;;
1154;SDS011;566;48.414;9.118;2023-02-28T02:58:49;15.52;;;9.88;;
1154;SDS011;566;48.414;9.118;2023-02-28T03:01:19;13.15;;;8.85;;
1154;SDS011;566;48.414;9.118;2023-02-28T03:03:52;14.43;;;9.02;;
1154;SDS011;566;48.414;9.118;2023-02-28T03:06:23;12.65;;;9.20;;
1154;SDS011;566;48.414;9.118;2023-02-28T03:08:49;13.10;;;9.25;;
1154;SDS011;566;48.414;9.118;2023-02-28T03:11:14;13.73;;;9.55;;
1154;SDS011;566;48.414;9.118;2023-02-28T03:21:47;15.60;;;8.75;;
1154;SDS011;566;48.414;9.118;2023-02-28T03:24:40;15.27;;;8.45;;
1154;SDS011;566;48.414;9.118;2023-02-28T03:29:42;13.43;;;9.15;;
1154;SDS011;566;48.414;9.118;2023-02-28T03:32:21;14.02;;;9.25;;
1154;SDS011;566;48.414;9.118;2023-02-28T03:35:12;13.60;;;8.38;;
1154;SDS011;566;48.414;9.118;2023-02-28T03:37:47;14.77;;;8.57;;
1154;SDS011;566;48.414;9.118;2023-02-28T03:40:25;11.52;;;8.35;;
1154;SDS011;566;48.414;9.118;2023-02-28T03:42:55;12.63;;;8.38;;
1154;SDS011;566;48.414;9.118;2023-02-28T03:45:28;11.05;;;8.48;;
1154;SDS011;566;48.414;9.118;2023-02-28T03:50:43;14.63;;;8.73;;
1154;SDS011;566;48.414;9.118;2023-02-28T03:55:53;11.88;;;7.30;;
1154;SDS011;566;48.414;9.118;2023-02-28T04:01:39;13.52;;;8.65;;
1154;SDS011;566;48.414;9.118;2023-02-28T04:04:10;14.30;;;7.30;;
1154;SDS011;566;48.414;9.118;2023-02-28T04:06:40;13.70;;;8.05;;
1154;SDS011;566;48.414;9.118;2023-02-28T04:09:07;14.75;;;8.25;;
1154;SDS011;566;48.414;9.118;2023-02-28T04:11:38;13.73;;;7.78;;
1154;SDS011;566;48.414;9.118;2023-02-28T04:14:10;12.00;;;8.95;;
1154;SDS011;566;48.414;9.118;2023-02-28T04:16:37;11.27;;;7.60;;
1154;SDS011;566;48.414;9.118;2023-02-28T04:19:05;11.75;;;7.70;;
1154;SDS011;566;48.414;9.118;2023-02-28T04:21:33;10.27;;;6.78;;
1154;SDS011;566;48.414;9.118;2023-02-28T04:24:04;11.80;;;7.60;;
1154;SDS011;566;48.414;9.118;2023-02-28T04:26:31;12.43;;;7.75;;
1154;SDS011;566;48.414;9.118;2023-02-28T04:29:01;13.27;;;8.60;;
1154;SDS011;566;48.414;9.118;2023-02-28T04:31:28;13.20;;;8.13;;
1154;SDS011;566;48.414;9.118;2023-02-28T04:33:54;11.85;;;7.68;;
1154;SDS011;566;48.414;9.118;2023-02-28T04:36:20;12.50;;;8.25;;
1154;SDS011;566;48.414;9.118;2023-02-28T04:38:47;12.77;;;8.43;;
1154;SDS011;566;48.414;9.118;2023-02-28T04:41:13;13.40;;;8.75;;
1154;SDS011;566;48.414;9.118;2023-02-28T04:43:39;15.00;;;9.35;;
1154;SDS011;566;48.414;9.118;2023-02-28T04:46:05;14.98;;;7.93;;
1154;SDS011;566;48.414;9.118;2023-02-28T04:48:32;12.50;;;7.30;;
1154;SDS011;566;48.414;9.118;2023-02-28T04:51:00;13.52;;;8.00;;
1154;SDS011;566;48.414;9.118;2023-02-28T04:53:27;13.23;;;7.82;;
1154;SDS011;566;48.414;9.118;2023-02-28T04:55:53;12.20;;;7.75;;
1154;SDS011;566;48.414;9.118;2023-02-28T04:58:20;14.60;;;8.45;;
1154;SDS011;566;48.414;9.118;2023-02-28T05:00:47;13.30;;;8.98;;
1154;SDS011;566;48.414;9.118;2023-02-28T05:03:13;11.40;;;8.30;;
1154;SDS011;566;48.414;9.118;2023-02-28T05:05:39;13.48;;;8.95;;
1154;SDS011;566;48.414;9.118;2023-02-28T05:08:04;14.30;;;8.73;;
1154;SDS011;566;48.414;9.118;2023-02-28T05:10:30;13.82;;;8.20;;
1154;SDS011;566;48.414;9.118;2023-02-28T05:12:56;13.52;;;8.88;;
1154;SDS011;566;48.414;9.118;2023-02-28T05:15:22;14.25;;;8.40;;
1154;SDS011;566;48.414;9.118;2023-02-28T05:17:48;14.23;;;9.02;;
1154;SDS011;566;48.414;9.118;2023-02-28T05:20:14;15.50;;;9.43;;
1154;SDS011;566;48.414;9.118;2023-02-28T05:22:40;16.70;;;10.55;;
1154;SDS011;566;48.414;9.118;2023-02-28T05:25:10;13.30;;;8.40;;
1154;SDS011;566;48.414;9.118;2023-02-28T05:27:43;14.43;;;8.85;;
1154;SDS011;566;48.414;9.118;2023-02-28T05:30:09;16.33;;;9.32;;
1154;SDS011;566;48.414;9.118;2023-02-28T05:32:38;13.98;;;9.63;;
1154;SDS011;566;48.414;9.118;2023-02-28T05:35:04;15.68;;;10.57;;
1154;SDS011;566;48.414;9.118;2023-02-28T05:37:30;17.23;;;9.90;;
1154;SDS011;566;48.414;9.118;2023-02-28T05:39:56;17.45;;;9.95;;
1154;SDS011;566;48.414;9.118;2023-02-28T05:42:25;17.45;;;10.93;;
1154;SDS011;566;48.414;9.118;2023-02-28T05:44:50;16.90;;;11.10;;
1154;SDS011;566;48.414;9.118;2023-02-28T05:47:16;15.13;;;10.18;;
1154;SDS011;566;48.414;9.118;2023-02-28T05:49:42;16.10;;;10.00;;
1154;SDS011;566;48.414;9.118;2023-02-28T05:52:08;17.52;;;10.70;;
1154;SDS011;566;48.414;9.118;2023-02-28T05:54:33;16.00;;;10.75;;
1154;SDS011;566;48.414;9.118;2023-02-28T05:56:59;13.02;;;9.82;;
1154;SDS011;566;48.414;9.118;2023-02-28T05:59:24;16.17;;;10.20;;
1154;SDS011;566;48.414;9.118;2023-02-28T06:01:50;16.23;;;9.95;;
1154;SDS011;566;48.414;9.118;2023-02-28T06:04:18;17.75;;;10.68;;
1154;SDS011;566;48.414;9.118;2023-02-28T06:06:47;17.23;;;10.68;;
1154;SDS011;566;48.414;9.118;2023-02-28T06:09:14;17.42;;;10.82;;
1154;SDS011;566;48.414;9.118;2023-02-28T06:11:42;16.42;;;10.82;;
1154;SDS011;566;48.414;9.118;2023-02-28T06:14:15;17.13;;;10.15;;
1154;SDS011;566;48.414;9.118;2023-02-28T06:16:42;16.00;;;10.07;;
1154;SDS011;566;48.414;9.118;2023-02-28T06:19:08;18.35;;;10.02;;
1154;SDS011;566;48.414;9.118;2023-02-28T06:21:35;21.52;;;11.63;;
1154;SDS011;566;48.414;9.118;2023-02-28T06:24:01;14.65;;;10.65;;
1154;SDS011;566;48.414;9.118;2023-02-28T06:26:27;16.08;;;10.55;;
1154;SDS011;566;48.414;9.118;2023-02-28T06:28:53;22.60;;;13.30;;
1154;SDS011;566;48.414;9.118;2023-02-28T06:31:19;19.15;;;10.90;;
1154;SDS011;566;48.414;9.118;2023-02-28T06:33:45;18.30;;;11.55;;
1154;SDS011;566;48.414;9.118;2023-02-28T06:36:12;15.80;;;10.48;;
1154;SDS011;566;48.414;9.118;2023-02-28T06:38:39;18.38;;;11.90;;
1154;SDS011;566;48.414;9.118;2023-02-28T06:41:05;17.67;;;10.73;;
1154;SDS011;566;48.414;9.118;2023-02-28T06:43:33;21.23;;;12.90;;
1154;SDS011;566;48.414;9.118;2023-02-28T06:46:02;18.67;;;12.25;;
1154;SDS011;566;48.414;9.118;2023-02-28T06:48:30;18.02;;;10.98;;
1154;SDS011;566;48.414;9.118;2023-02-28T06:51:03;20.73;;;13.50;;
1154;SDS011;566;48.414;9.118;2023-02-28T06:53:39;19.83;;;12.05;;
1154;SDS011;566;48.414;9.118;2023-02-28T06:56:09;22.48;;;14.85;;
1154;SDS011;566;48.414;9.118;2023-02-28T06:58:37;22.63;;;14.85;;
1154;SDS011;566;48.414;9.118;2023-02-28T07:01:07;25.05;;;13.90;;
1154;SDS011;566;48.414;9.118;2023-02-28T07:03:34;20.63;;;14.10;;
1154;SDS011;566;48.414;9.118;2023-02-28T07:06:01;26.80;;;16.40;;
1154;SDS011;566;48.414;9.118;2023-02-28T07:08:27;24.67;;;15.63;;
1154;SDS011;566;48.414;9.118;2023-02-28T07:10:53;22.45;;;15.38;;
1154;SDS011;566;48.414;9.118;2023-02-28T07:13:20;25.00;;;15.00;;
1154;SDS011;566;48.414;9.118;2023-02-28T07:16:00;23.42;;;15.50;;
1154;SDS011;566;48.414;9.118;2023-02-28T07:18:27;22.15;;;15.20;;
1154;SDS011;566;48.414;9.118;2023-02-28T07:20:53;21.83;;;13.88;;
1154;SDS011;566;48.414;9.118;2023-02-28T07:23:19;22.50;;;14.85;;
1154;SDS011;566;48.414;9.118;2023-02-28T07:25:45;22.25;;;13.95;;
1154;SDS011;566;48.414;9.118;2023-02-28T07:28:11;21.95;;;14.85;;
1154;SDS011;566;48.414;9.118;2023-02-28T07:30:37;22.80;;;14.30;;
1154;SDS011;566;48.414;9.118;2023-02-28T07:33:03;24.33;;;15.48;;
1154;SDS011;566;48.414;9.118;2023-02-28T07:35:29;24.50;;;16.38;;
1154;SDS011;566;48.414;9.118;2023-02-28T07:37:57;21.15;;;14.43;;
1154;SDS011;566;48.414;9.118;2023-02-28T07:40:23;22.00;;;14.82;;
1154;SDS011;566;48.414;9.118;2023-02-28T07:42:49;19.75;;;12.95;;
1154;SDS011;566;48.414;9.118;2023-02-28T07:45:14;20.02;;;12.73;;
1154;SDS011;566;48.414;9.118;2023-02-28T07:47:40;23.50;;;15.23;;
1154;SDS011;566;48.414;9.118;2023-02-28T07:50:08;22.42;;;14.27;;
1154;SDS011;566;48.414;9.118;2023-02-28T07:52:36;21.73;;;14.15;;
1154;SDS011;566;48.414;9.118;2023-02-28T07:55:05;21.52;;;14.55;;
1154;SDS011;566;48.414;9.118;2023-02-28T07:57:32;23.38;;;15.10;;
1154;SDS011;566;48.414;9.118;2023-02-28T07:59:58;26.00;;;14.77;;
1154;SDS011;566;48.414;9.118;2023-02-28T08:02:23;23.42;;;15.95;;
1154;SDS011;566;48.414;9.118;2023-02-28T08:04:49;31.23;;;19.25;;
1154;SDS011;566;48.414;9.118;2023-02-28T08:07:15;25.58;;;15.77;;
1154;SDS011;566;48.414;9.118;2023-02-28T08:09:42;22.38;;;14.85;;
1154;SDS011;566;48.414;9.118;2023-02-28T08:12:08;31.00;;;20.02;;
1154;SDS011;566;48.414;9.118;2023-02-28T08:14:35;21.40;;;14.48;;
1154;SDS011;566;48.414;9.118;2023-02-28T08:17:04;22.17;;;15.48;;
1154;SDS011;566;48.414;9.118;2023-02-28T08:19:33;20.08;;;14.35;;
1154;SDS011;566;48.414;9.118;2023-02-28T08:21:59;23.42;;;15.00;;
1154;SDS011;566;48.414;9.118;2023-02-28T08:24:25;20.92;;;13.57;;
1154;SDS011;566;48.414;9.118;2023-02-28T08:26:50;21.27;;;14.95;;
1154;SDS011;566;48.414;9.118;2023-02-28T08:29:16;19.92;;;14.77;;
1154;SDS011;566;48.414;9.118;2023-02-28T08:31:41;25.02;;;16.20;;
1154;SDS011;566;48.414;9.118;2023-02-28T08:34:07;20.17;;;13.85;;
1154;SDS011;566;48.414;9.118;2023-02-28T08:36:34;21.70;;;14.30;;
1154;SDS011;566;48.414;9.118;2023-02-28T08:39:00;24.70;;;15.75;;
1154;SDS011;566;48.414;9.118;2023-02-28T08:41:25;27.67;;;18.50;;
1154;SDS011;566;48.414;9.118;2023-02-28T08:43:51;22.20;;;15.38;;
1154;SDS011;566;48.414;9.118;2023-02-28T08:46:17;23.75;;;14.82;;
1154;SDS011;566;48.414;9.118;2023-02-28T08:48:42;22.85;;;15.35;;
1154;SDS011;566;48.414;9.118;2023-02-28T08:51:09;23.15;;;15.02;;
1154;SDS011;566;48.414;9.118;2023-02-28T08:53:37;20.52;;;14.68;;
1154;SDS011;566;48.414;9.118;2023-02-28T08:56:13;20.42;;;14.98;;
1154;SDS011;566;48.414;9.118;2023-02-28T08:58:41;22.20;;;14.55;;
1154;SDS011;566;48.414;9.118;2023-02-28T09:01:11;23.02;;;14.82;;
1154;SDS011;566;48.414;9.118;2023-02-28T09:03:46;26.77;;;16.27;;
1154;SDS011;566;48.414;9.118;2023-02-28T09:06:14;21.48;;;14.57;;
1154;SDS011;566;48.414;9.118;2023-02-28T09:08:41;21.17;;;15.18;;
1154;SDS011;566;48.414;9.118;2023-02-28T09:11:07;24.80;;;15.93;;
1154;SDS011;566;48.414;9.118;2023-02-28T09:13:34;23.40;;;14.95;;
1154;SDS011;566;48.414;9.118;2023-02-28T09:16:00;23.02;;;14.88;;
1154;SDS011;566;48.414;9.118;2023-02-28T09:18:27;20.73;;;14.65;;
1154;SDS011;566;48.414;9.118;2023-02-28T09:20:53;19.85;;;14.38;;
1154;SDS011;566;48.414;9.118;2023-02-28T09:23:19;22.48;;;15.07;;
1154;SDS011;566;48.414;9.118;2023-02-28T09:25:46;23.23;;;15.95;;
1154;SDS011;566;48.414;9.118;2023-02-28T09:28:13;25.83;;;16.42;;
1154;SDS011;566;48.414;9.118;2023-02-28T09:30:42;23.33;;;15.10;;
1154;SDS011;566;48.414;9.118;2023-02-28T09:33:11;22.45;;;15.77;;
1154;SDS011;566;48.414;9.118;2023-02-28T09:35:37;24.42;;;15.75;;
1154;SDS011;566;48.414;9.118;2023-02-28T09:38:03;26.50;;;17.77;;
1154;SDS011;566;48.414;9.118;2023-02-28T09:40:29;31.95;;;19.15;;
1154;SDS011;566;48.414;9.118;2023-02-28T09:42:56;44.00;;;25.73;;
1154;SDS011;566;48.414;9.118;2023-02-28T09:45:26;22.13;;;15.27;;
1154;SDS011;566;48.414;9.118;2023-02-28T09:47:53;42.00;;;23.63;;
1154;SDS011;566;48.414;9.118;2023-02-28T09:52:57;182.05;;;82.38;;
1154;SDS011;566;48.414;9.118;2023-02-28T09:55:33;50.65;;;27.55;;
1154;SDS011;566;48.414;9.118;2023-02-28T09:58:04;40.00;;;27.13;;
1154;SDS011;566;48.414;9.118;2023-02-28T10:00:41;32.05;;;20.55;;
1154;SDS011;566;48.414;9.118;2023-02-28T10:06:17;29.70;;;22.67;;
1154;SDS011;566;48.414;9.118;2023-02-28T10:09:07;28.13;;;18.42;;
1154;SDS011;566;48.414;9.118;2023-02-28T10:11:42;25.15;;;17.42;;
1154;SDS011;566;48.414;9.118;2023-02-28T10:14:13;24.33;;;16.30;;
1154;SDS011;566;48.414;9.118;2023-02-28T10:16:48;21.58;;;15.30;;
1154;SDS011;566;48.414;9.118;2023-02-28T10:22:25;24.60;;;15.15;;
1154;SDS011;566;48.414;9.118;2023-02-28T10:24:52;30.45;;;20.30;;
1154;SDS011;566;48.414;9.118;2023-02-28T10:27:22;25.05;;;16.40;;
1154;SDS011;566;48.414;9.118;2023-02-28T10:29:50;24.80;;;16.92;;
1154;SDS011;566;48.414;9.118;2023-02-28T10:32:19;24.70;;;17.40;;
1154;SDS011;566;48.414;9.118;2023-02-28T10:37:37;25.15;;;16.40;;
1154;SDS011;566;48.414;9.118;2023-02-28T10:40:04;25.38;;;18.05;;
1154;SDS011;566;48.414;9.118;2023-02-28T10:42:32;22.58;;;16.27;;
1154;SDS011;566;48.414;9.118;2023-02-28T10:47:30;21.00;;;14.35;;
1154;SDS011;566;48.414;9.118;2023-02-28T10:49:58;22.85;;;15.35;;
1154;SDS011;566;48.414;9.118;2023-02-28T10:52:40;20.48;;;14.18;;
1154;SDS011;566;48.414;9.118;2023-02-28T10:55:19;19.73;;;14.25;;
1154;SDS011;566;48.414;9.118;2023-02-28T10:57:47;21.88;;;15.25;;
1154;SDS011;566;48.414;9.118;2023-02-28T11:02:46;19.80;;;14.80;;
1154;SDS011;566;48.414;9.118;2023-02-28T11:07:55;24.27;;;15.70;;
1154;SDS011;566;48.414;9.118;2023-02-28T11:10:25;22.92;;;16.15;;
1154;SDS011;566;48.414;9.118;2023-02-28T11:12:56;20.10;;;13.35;;
1154;SDS011;566;48.414;9.118;2023-02-28T11:15:24;22.13;;;14.10;;
1154;SDS011;566;48.414;9.118;2023-02-28T11:17:54;21.50;;;14.45;;
1154;SDS011;566;48.414;9.118;2023-02-28T11:20:30;26.73;;;17.83;;
1154;SDS011;566;48.414;9.118;2023-02-28T11:22:59;22.83;;;15.43;;
1154;SDS011;566;48.414;9.118;2023-02-28T11:25:33;20.58;;;15.07;;
1154;SDS011;566;48.414;9.118;2023-02-28T11:28:06;24.23;;;14.57;;
1154;SDS011;566;48.414;9.118;2023-02-28T11:31:34;19.50;;;13.75;;
1154;SDS011;566;48.414;9.118;2023-02-28T11:33:42;20.55;;;14.82;;
1154;SDS011;566;48.414;9.118;2023-02-28T11:36:19;20.90;;;13.75;;
1154;SDS011;566;48.414;9.118;2023-02-28T11:38:52;20.00;;;14.32;;
1154;SDS011;566;48.414;9.118;2023-02-28T11:41:25;26.33;;;18.95;;
1154;SDS011;566;48.414;9.118;2023-02-28T11:44:44;22.55;;;14.75;;
1154;SDS011;566;48.414;9.118;2023-02-28T12:11:45;18.55;;;12.82;;
1154;SDS011;566;48.414;9.118;2023-02-28T12:20:20;18.25;;;13.65;;
1154;SDS011;566;48.414;9.118;2023-02-28T12:23:18;19.05;;;13.23;;
1154;SDS011;566;48.414;9.118;2023-02-28T12:25:55;17.67;;;13.10;;
1154;SDS011;566;48.414;9.118;2023-02-28T12:28:36;17.80;;;13.60;;
1154;SDS011;566;48.414;9.118;2023-02-28T12:31:11;16.60;;;12.43;;
1154;SDS011;566;48.414;9.118;2023-02-28T12:33:47;17.48;;;13.23;;
1154;SDS011;566;48.414;9.118;2023-02-28T12:36:17;14.73;;;12.10;;
1154;SDS011;566;48.414;9.118;2023-02-28T12:39:00;18.00;;;12.73;;
1154;SDS011;566;48.414;9.118;2023-02-28T12:44:17;21.83;;;14.30;;
1154;SDS011;566;48.414;9.118;2023-02-28T12:47:04;19.58;;;15.77;;
1154;SDS011;566;48.414;9.118;2023-02-28T12:49:36;18.10;;;13.48;;
1154;SDS011;566;48.414;9.118;2023-02-28T12:52:06;18.70;;;13.73;;
1154;SDS011;566;48.414;9.118;2023-02-28T12:54:42;18.40;;;13.23;;
1154;SDS011;566;48.414;9.118;2023-02-28T12:57:18;17.85;;;13.50;;
1154;SDS011;566;48.414;9.118;2023-02-28T13:00:16;18.73;;;14.10;;
1154;SDS011;566;48.414;9.118;2023-02-28T13:08:37;16.80;;;13.02;;
1154;SDS011;566;48.414;9.118;2023-02-28T13:11:41;17.02;;;12.82;;
1154;SDS011;566;48.414;9.118;2023-02-28T13:19:28;18.70;;;13.15;;
1154;SDS011;566;48.414;9.118;2023-02-28T13:21:56;18.27;;;14.52;;
1154;SDS011;566;48.414;9.118;2023-02-28T13:24:45;21.15;;;14.13;;
1154;SDS011;566;48.414;9.118;2023-02-28T13:27:19;17.95;;;13.30;;
1154;SDS011;566;48.414;9.118;2023-02-28T13:29:51;18.13;;;14.20;;
1154;SDS011;566;48.414;9.118;2023-02-28T13:32:19;20.73;;;13.60;;
1154;SDS011;566;48.414;9.118;2023-02-28T13:39:50;20.85;;;14.85;;
1154;SDS011;566;48.414;9.118;2023-02-28T13:47:30;20.50;;;15.48;;
1154;SDS011;566;48.414;9.118;2023-02-28T13:52:45;18.98;;;13.50;;
1154;SDS011;566;48.414;9.118;2023-02-28T14:08:50;16.27;;;12.57;;
1154;SDS011;566;48.414;9.118;2023-02-28T14:11:27;16.80;;;13.40;;
1154;SDS011;566;48.414;9.118;2023-02-28T14:14:02;16.55;;;12.30;;
1154;SDS011;566;48.414;9.118;2023-02-28T14:16:44;16.73;;;12.38;;
1154;SDS011;566;48.414;9.118;2023-02-28T14:19:12;17.50;;;12.93;;
1154;SDS011;566;48.414;9.118;2023-02-28T14:24:34;18.05;;;12.13;;
1154;SDS011;566;48.414;9.118;2023-02-28T14:27:26;16.65;;;12.45;;
1154;SDS011;566;48.414;9.118;2023-02-28T14:30:14;16.30;;;11.90;;
1154;SDS011;566;48.414;9.118;2023-02-28T14:38:14;23.65;;;15.38;;
1154;SDS011;566;48.414;9.118;2023-02-28T14:40:49;19.05;;;13.75;;
1154;SDS011;566;48.414;9.118;2023-02-28T14:43:25;20.38;;;12.90;;
1154;SDS011;566;48.414;9.118;2023-02-28T14:45:53;16.20;;;12.57;;
1154;SDS011;566;48.414;9.118;2023-02-28T14:48:21;17.50;;;12.90;;
1154;SDS011;566;48.414;9.118;2023-02-28T14:50:51;17.23;;;12.68;;
1154;SDS011;566;48.414;9.118;2023-02-28T14:53:25;16.17;;;11.68;;
1154;SDS011;566;48.414;9.118;2023-02-28T14:55:54;17.67;;;12.48;;
1154;SDS011;566;48.414;9.118;2023-02-28T14:58:29;20.48;;;13.57;;
1154;SDS011;566;48.414;9.118;2023-02-28T15:00:57;18.05;;;13.70;;
1154;SDS011;566;48.414;9.118;2023-02-28T15:03:29;17.40;;;12.63;;
1154;SDS011;566;48.414;9.118;2023-02-28T15:08:30;16.58;;;12.13;;
1154;SDS011;566;48.414;9.118;2023-02-28T15:11:05;16.83;;;12.82;;
1154;SDS011;566;48.414;9.118;2023-02-28T15:13:39;18.15;;;13.13;;
1154;SDS011;566;48.414;9.118;2023-02-28T15:16:11;16.92;;;12.52;;
1154;SDS011;566;48.414;9.118;2023-02-28T15:18:48;16.48;;;12.95;;
1154;SDS011;566;48.414;9.118;2023-02-28T15:23:55;17.58;;;13.23;;
1154;SDS011;566;48.414;9.118;2023-02-28T15:26:32;18.08;;;13.55;;
1154;SDS011;566;48.414;9.118;2023-02-28T15:29:04;15.73;;;12.30;;
1154;SDS011;566;48.414;9.118;2023-02-28T15:31:35;18.90;;;12.55;;
1154;SDS011;566;48.414;9.118;2023-02-28T15:34:27;20.25;;;12.55;;
1154;SDS011;566;48.414;9.118;2023-02-28T15:42:58;18.67;;;12.57;;
1154;SDS011;566;48.414;9.118;2023-02-28T15:45:34;15.82;;;12.38;;
1154;SDS011;566;48.414;9.118;2023-02-28T15:48:28;20.45;;;12.38;;
1154;SDS011;566;48.414;9.118;2023-02-28T15:51:16;18.60;;;12.93;;
1154;SDS011;566;48.414;9.118;2023-02-28T15:56:34;20.35;;;12.35;;
1154;SDS011;566;48.414;9.118;2023-02-28T15:59:48;17.45;;;12.48;;
1154;SDS011;566;48.414;9.118;2023-02-28T16:04:34;15.05;;;11.63;;
1154;SDS011;566;48.414;9.118;2023-02-28T16:07:12;17.52;;;12.50;;
1154;SDS011;566;48.414;9.118;2023-02-28T16:09:40;17.67;;;12.68;;
1154;SDS011;566;48.414;9.118;2023-02-28T16:12:08;17.80;;;13.30;;
1154;SDS011;566;48.414;9.118;2023-02-28T16:14:38;18.33;;;13.73;;
1154;SDS011;566;48.414;9.118;2023-02-28T16:17:06;20.60;;;15.07;;
1154;SDS011;566;48.414;9.118;2023-02-28T16:19:50;18.95;;;13.88;;
1154;SDS011;566;48.414;9.118;2023-02-28T16:22:19;18.67;;;13.95;;
1154;SDS011;566;48.414;9.118;2023-02-28T16:24:44;17.30;;;13.35;;
1154;SDS011;566;48.414;9.118;2023-02-28T16:27:14;22.75;;;14.90;;
1154;SDS011;566;48.414;9.118;2023-02-28T16:30:00;18.23;;;13.50;;
1154;SDS011;566;48.414;9.118;2023-02-28T16:32:26;21.58;;;14.38;;
1154;SDS011;566;48.414;9.118;2023-02-28T16:34:52;21.23;;;14.10;;
1154;SDS011;566;48.414;9.118;2023-02-28T16:37:18;22.05;;;15.38;;
1154;SDS011;566;48.414;9.118;2023-02-28T16:39:44;23.55;;;15.52;;
1154;SDS011;566;48.414;9.118;2023-02-28T16:42:19;25.60;;;16.75;;
1154;SDS011;566;48.414;9.118;2023-02-28T16:44:52;22.27;;;15.25;;
1154;SDS011;566;48.414;9.118;2023-02-28T16:47:19;25.45;;;17.45;;
1154;SDS011;566;48.414;9.118;2023-02-28T16:49:45;26.65;;;16.05;;
1154;SDS011;566;48.414;9.118;2023-02-28T16:52:12;24.63;;;16.00;;
1154;SDS011;566;48.414;9.118;2023-02-28T16:54:39;24.63;;;15.95;;
1154;SDS011;566;48.414;9.118;2023-02-28T16:57:06;23.98;;;14.65;;
1154;SDS011;566;48.414;9.118;2023-02-28T16:59:48;21.33;;;15.02;;
1154;SDS011;566;48.414;9.118;2023-02-28T17:02:15;24.63;;;15.98;;
1154;SDS011;566;48.414;9.118;2023-02-28T17:04:44;24.88;;;16.23;;
1154;SDS011;566;48.414;9.118;2023-02-28T17:07:11;26.80;;;18.63;;
1154;SDS011;566;48.414;9.118;2023-02-28T17:09:38;28.55;;;17.73;;
1154;SDS011;566;48.414;9.118;2023-02-28T17:12:04;35.45;;;20.35;;
1154;SDS011;566;48.414;9.118;2023-02-28T17:14:30;44.90;;;23.98;;
1154;SDS011;566;48.414;9.118;2023-02-28T17:16:56;42.03;;;25.35;;
1154;SDS011;566;48.414;9.118;2023-02-28T17:19:21;51.33;;;29.23;;
1154;SDS011;566;48.414;9.118;2023-02-28T17:21:47;43.72;;;28.58;;
1154;SDS011;566;48.414;9.118;2023-02-28T17:24:12;28.70;;;20.02;;
1154;SDS011;566;48.414;9.118;2023-02-28T17:26:39;30.45;;;18.98;;
1154;SDS011;566;48.414;9.118;2023-02-28T17:29:11;24.10;;;16.42;;
1154;SDS011;566;48.414;9.118;2023-02-28T17:31:43;25.20;;;16.63;;
1154;SDS011;566;48.414;9.118;2023-02-28T17:34:08;24.52;;;15.93;;
1154;SDS011;566;48.414;9.118;2023-02-28T17:36:34;23.05;;;15.60;;
1154;SDS011;566;48.414;9.118;2023-02-28T17:39:02;24.88;;;17.05;;
1154;SDS011;566;48.414;9.118;2023-02-28T17:41:29;28.80;;;18.70;;
1154;SDS011;566;48.414;9.118;2023-02-28T17:43:55;26.10;;;16.70;;
1154;SDS011;566;48.414;9.118;2023-02-28T17:46:22;28.05;;;17.33;;
1154;SDS011;566;48.414;9.118;2023-02-28T17:48:50;35.85;;;24.63;;
1154;SDS011;566;48.414;9.118;2023-02-28T17:51:17;33.15;;;22.80;;
1154;SDS011;566;48.414;9.118;2023-02-28T17:53:44;31.52;;;20.98;;
1154;SDS011;566;48.414;9.118;2023-02-28T17:56:18;31.25;;;20.30;;
1154;SDS011;566;48.414;9.118;2023-02-28T17:58:46;30.15;;;19.17;;
1154;SDS011;566;48.414;9.118;2023-02-28T18:01:11;25.58;;;18.00;;